createdAt,value
2024-01-11T00:01:04.797Z,10.23
2024-01-11T00:03:33.148Z,9.82
2024-01-11T00:06:05.312Z,9.60
2024-01-11T00:08:33.811Z,10.15
2024-01-11T00:11:02.174Z,8.73
2024-01-11T00:13:30.562Z,9.65
2024-01-11T00:15:58.896Z,9.40
2024-01-11T00:18:27.415Z,10.45
2024-01-11T00:20:55.895Z,9.35
2024-01-11T00:23:25.634Z,10.88
2024-01-11T00:25:54.253Z,9.07
2024-01-11T00:28:22.649Z,9.60
2024-01-11T00:30:51.004Z,9.27
2024-01-11T00:33:19.475Z,9.40
2024-01-11T00:35:47.914Z,9.52
2024-01-11T00:38:16.318Z,8.30
2024-01-11T00:40:46.022Z,9.48
2024-01-11T00:43:14.346Z,9.55
2024-01-11T00:45:42.699Z,8.48
2024-01-11T00:48:11.173Z,9.25
2024-01-11T00:50:39.744Z,9.50
2024-01-11T00:53:09.517Z,9.48
2024-01-11T00:55:37.896Z,11.50
2024-01-11T00:58:07.605Z,8.38
2024-01-11T01:00:36.058Z,8.48
2024-01-11T01:03:04.475Z,9.65
2024-01-11T01:05:32.997Z,8.93
2024-01-11T01:08:01.565Z,9.77
2024-01-11T01:10:29.912Z,9.77
2024-01-11T01:12:58.235Z,10.23
2024-01-11T01:15:28.057Z,10.73
2024-01-11T01:17:56.565Z,9.35
2024-01-11T01:20:25.076Z,9.23
2024-01-11T01:22:53.445Z,8.52
2024-01-11T01:25:21.890Z,8.82
2024-01-11T01:27:50.420Z,9.38
2024-01-11T01:30:18.958Z,7.65
2024-01-11T01:32:48.914Z,8.93
2024-01-11T01:35:17.595Z,9.18
2024-01-11T01:37:46.148Z,8.45
2024-01-11T01:40:14.559Z,7.38
2024-01-11T01:42:45.516Z,8.02
2024-01-11T01:45:14.038Z,9.48
2024-01-11T01:47:43.255Z,9.27
2024-01-11T01:50:13.923Z,10.15
2024-01-11T01:52:43.310Z,9.48
2024-01-11T01:55:12.786Z,8.57
2024-01-11T01:57:42.942Z,8.13
2024-01-11T02:00:11.794Z,9.63
2024-01-11T02:02:39.804Z,9.88
2024-01-11T02:05:08.878Z,9.30
2024-01-11T02:07:38.698Z,9.45
2024-01-11T02:10:08.039Z,9.63
2024-01-11T02:12:38.006Z,9.27
2024-01-11T02:15:06.836Z,9.32
2024-01-11T02:17:35.459Z,9.60
2024-01-11T02:20:04.745Z,8.65
2024-01-11T02:22:35.303Z,7.35
2024-01-11T02:25:05.025Z,7.45
2024-01-11T02:27:33.430Z,8.55
2024-01-11T02:30:01.739Z,7.78
2024-01-11T02:32:30.160Z,9.38
2024-01-11T02:34:58.671Z,9.38
2024-01-11T02:37:27.240Z,10.20
2024-01-11T02:39:55.693Z,9.43
2024-01-11T02:42:25.370Z,7.57
2024-01-11T02:44:53.710Z,8.88
2024-01-11T02:47:22.060Z,8.63
2024-01-11T02:49:50.425Z,10.02
2024-01-11T02:52:18.739Z,8.40
2024-01-11T02:54:47.077Z,8.73
2024-01-11T02:57:15.388Z,8.68
2024-01-11T02:59:45.910Z,9.95
2024-01-11T03:02:14.284Z,9.75
2024-01-11T03:04:42.676Z,9.55
2024-01-11T03:07:10.999Z,9.73
2024-01-11T03:09:39.418Z,10.65
2024-01-11T03:12:08.625Z,9.32
2024-01-11T03:14:37.040Z,8.90
2024-01-11T03:17:07.001Z,8.77
2024-01-11T03:19:35.372Z,9.60
2024-01-11T03:22:07.291Z,9.65
2024-01-11T03:24:35.664Z,9.73
2024-01-11T03:27:04.006Z,8.75
2024-01-11T03:29:32.729Z,9.30
2024-01-11T03:32:01.106Z,9.13
2024-01-11T03:34:30.949Z,9.40
2024-01-11T03:36:59.299Z,9.50
2024-01-11T03:39:28.116Z,10.23
2024-01-11T03:41:56.446Z,10.32
2024-01-11T03:44:25.395Z,9.43
2024-01-11T03:46:53.753Z,10.05
2024-01-11T03:49:22.166Z,10.68
2024-01-11T03:51:51.893Z,10.18
2024-01-11T03:54:20.283Z,8.55
2024-01-11T03:56:49.284Z,7.85
2024-01-11T03:59:17.927Z,8.07
2024-01-11T04:01:46.297Z,8.40
2024-01-11T04:04:14.615Z,8.65
2024-01-11T04:06:43.032Z,8.82
2024-01-11T04:09:12.754Z,7.35
2024-01-11T04:11:41.219Z,9.05
2024-01-11T04:14:09.659Z,9.95
2024-01-11T04:16:42.547Z,8.93
2024-01-11T04:19:11.092Z,8.88
2024-01-11T04:21:40.503Z,7.03
2024-01-11T04:24:09.263Z,8.52
2024-01-11T04:26:39.009Z,8.07
2024-01-11T04:29:07.424Z,9.48
2024-01-11T04:31:35.779Z,8.15
2024-01-11T04:34:04.236Z,7.40
2024-01-11T04:36:32.606Z,6.78
2024-01-11T04:39:00.984Z,8.50
2024-01-11T04:41:29.402Z,8.18
2024-01-11T04:43:59.148Z,9.77
2024-01-11T04:46:27.554Z,8.10
2024-01-11T04:48:56.114Z,10.82
2024-01-11T04:51:24.475Z,7.97
2024-01-11T04:53:52.957Z,7.65
2024-01-11T04:56:21.459Z,9.07
2024-01-11T04:58:50.061Z,9.32
2024-01-11T05:01:20.221Z,10.10
2024-01-11T05:03:49.199Z,9.90
2024-01-11T05:06:18.513Z,9.60
2024-01-11T05:08:47.137Z,9.32
2024-01-11T05:11:19.542Z,9.85
2024-01-11T05:13:49.402Z,9.10
2024-01-11T05:16:23.637Z,8.88
2024-01-11T05:18:52.328Z,9.70
2024-01-11T05:21:20.791Z,8.68
2024-01-11T05:23:49.749Z,7.97
2024-01-11T05:26:19.096Z,9.25
2024-01-11T05:28:47.547Z,8.10
2024-01-11T05:31:17.564Z,8.38
2024-01-11T05:33:48.868Z,9.10
2024-01-11T05:36:17.734Z,8.27
2024-01-11T05:38:46.117Z,9.60
2024-01-11T05:41:14.508Z,8.07
2024-01-11T05:43:43.768Z,7.78
2024-01-11T05:46:12.152Z,8.23
2024-01-11T05:48:40.651Z,8.75
2024-01-11T05:51:10.921Z,8.85
2024-01-11T05:53:39.346Z,9.15
2024-01-11T05:56:10.750Z,9.00
2024-01-11T05:58:39.870Z,8.80
2024-01-11T06:01:08.513Z,8.52
2024-01-11T06:03:37.789Z,9.05
2024-01-11T06:06:06.846Z,8.43
2024-01-11T06:08:36.713Z,9.15
2024-01-11T06:11:05.807Z,9.73
2024-01-11T06:13:34.250Z,9.32
2024-01-11T06:16:02.612Z,8.88
2024-01-11T06:18:31.750Z,9.07
2024-01-11T06:21:00.325Z,10.45
2024-01-11T06:23:29.123Z,9.43
2024-01-11T06:25:58.972Z,9.48
2024-01-11T06:28:27.357Z,9.13
2024-01-11T06:30:55.790Z,9.25
2024-01-11T06:33:24.195Z,10.57
2024-01-11T06:35:52.904Z,9.35
2024-01-11T06:38:21.318Z,10.15
2024-01-11T06:40:49.754Z,10.52
2024-01-11T06:43:19.492Z,8.75
2024-01-11T06:45:47.834Z,8.68
2024-01-11T06:48:16.320Z,8.35
2024-01-11T06:50:45.012Z,11.20
2024-01-11T06:53:13.553Z,10.20
2024-01-11T06:55:42.354Z,10.10
2024-01-11T06:58:10.698Z,9.68
2024-01-11T07:00:44.640Z,10.10
2024-01-11T07:03:13.365Z,9.63
2024-01-11T07:05:41.869Z,9.57
2024-01-11T07:08:10.302Z,9.35
2024-01-11T07:10:38.781Z,9.30
2024-01-11T07:13:07.990Z,8.73
2024-01-11T07:15:36.368Z,8.65
2024-01-11T07:18:06.595Z,8.43
2024-01-11T07:20:35.224Z,8.68
2024-01-11T07:23:03.655Z,10.07
2024-01-11T07:25:33.033Z,10.40
2024-01-11T07:28:01.352Z,9.02
2024-01-11T07:30:29.764Z,9.32
2024-01-11T07:32:58.521Z,8.70
2024-01-11T07:35:28.748Z,9.32
2024-01-11T07:37:57.833Z,8.98
2024-01-11T07:40:26.571Z,10.00
2024-01-11T07:42:55.274Z,9.35
2024-01-11T07:45:23.812Z,9.38
2024-01-11T07:47:52.259Z,9.30
2024-01-11T07:50:20.753Z,10.38
2024-01-11T07:52:50.739Z,8.98
2024-01-11T07:55:19.351Z,7.20
2024-01-11T07:57:47.915Z,9.43
2024-01-11T08:00:16.607Z,9.32
2024-01-11T08:02:45.076Z,7.93
2024-01-11T08:05:13.604Z,8.15
2024-01-11T08:07:43.195Z,8.82
2024-01-11T08:10:13.134Z,9.52
2024-01-11T08:12:41.569Z,8.00
2024-01-11T08:15:13.664Z,7.13
2024-01-11T08:17:43.164Z,7.55
2024-01-11T08:20:13.503Z,7.63
2024-01-11T08:22:42.270Z,7.18
2024-01-11T08:25:10.902Z,6.03
2024-01-11T08:27:40.885Z,7.22
2024-01-11T08:30:09.817Z,8.00
2024-01-11T08:32:40.949Z,7.80
2024-01-11T08:35:11.098Z,8.02
2024-01-11T08:37:40.327Z,7.10
2024-01-11T08:40:10.628Z,9.20
2024-01-11T08:42:39.259Z,7.70
2024-01-11T08:45:09.946Z,8.13
2024-01-11T08:47:39.874Z,7.68
2024-01-11T08:50:09.158Z,9.07
2024-01-11T08:52:39.308Z,9.45
2024-01-11T08:55:08.604Z,10.88
2024-01-11T08:57:38.342Z,9.93
2024-01-11T09:00:08.051Z,11.00
2024-01-11T09:02:38.181Z,12.40
2024-01-11T09:05:09.329Z,11.60
2024-01-11T09:07:38.643Z,11.40
2024-01-11T09:10:09.527Z,11.75
2024-01-11T09:12:38.044Z,11.85
2024-01-11T09:15:06.925Z,9.27
2024-01-11T09:17:35.479Z,12.60
2024-01-11T09:20:05.506Z,11.65
2024-01-11T09:22:33.829Z,11.43
2024-01-11T09:25:02.206Z,11.18
2024-01-11T09:27:30.609Z,12.93
2024-01-11T09:29:59.367Z,12.25
2024-01-11T09:32:27.881Z,11.35
2024-01-11T09:34:56.251Z,11.68
2024-01-11T09:37:25.947Z,11.90
2024-01-11T09:39:54.382Z,11.27
2024-01-11T09:42:22.758Z,11.30
2024-01-11T09:44:51.347Z,10.43
2024-01-11T09:47:20.098Z,11.18
2024-01-11T09:49:51.952Z,11.48
2024-01-11T09:52:23.006Z,10.70
2024-01-11T09:54:52.781Z,13.48
2024-01-11T09:57:27.002Z,11.60
2024-01-11T09:59:57.807Z,12.18
2024-01-11T10:02:27.754Z,11.13
2024-01-11T10:04:56.456Z,11.68
2024-01-11T10:07:25.984Z,11.10
2024-01-11T10:09:55.952Z,10.32
2024-01-11T10:12:26.571Z,9.93
2024-01-11T10:14:55.258Z,11.75
2024-01-11T10:17:25.688Z,9.82
2024-01-11T10:19:56.835Z,10.60
2024-01-11T10:22:27.242Z,10.48
2024-01-11T10:25:10.946Z,10.63
2024-01-11T10:27:39.357Z,9.82
2024-01-11T10:30:09.002Z,10.73
2024-01-11T10:32:37.646Z,11.57
2024-01-11T10:35:06.563Z,10.60
2024-01-11T10:37:35.467Z,11.52
2024-01-11T10:40:10.753Z,11.68
2024-01-11T10:42:42.700Z,11.13
2024-01-11T10:45:13.609Z,13.00
2024-01-11T10:47:43.505Z,10.38
2024-01-11T10:50:12.182Z,10.93
2024-01-11T10:52:51.209Z,13.13
2024-01-11T10:55:21.814Z,14.32
2024-01-11T10:57:50.818Z,12.70
2024-01-11T11:00:19.654Z,12.80
2024-01-11T11:02:49.027Z,13.27
2024-01-11T11:05:18.521Z,13.65
2024-01-11T11:07:47.265Z,12.55
2024-01-11T11:10:16.494Z,12.70
2024-01-11T11:12:46.665Z,13.63
2024-01-11T11:15:15.553Z,12.10
2024-01-11T11:17:44.976Z,11.57
2024-01-11T11:20:14.730Z,13.15
2024-01-11T11:22:43.948Z,13.43
2024-01-11T11:25:12.535Z,14.35
2024-01-11T11:27:40.894Z,11.75
2024-01-11T11:30:12.046Z,12.02
2024-01-11T11:32:41.847Z,13.68
2024-01-11T11:35:10.517Z,12.27
2024-01-11T11:37:39.798Z,12.40
2024-01-11T11:40:08.846Z,12.70
2024-01-11T11:42:37.566Z,12.68
2024-01-11T11:45:06.290Z,13.52
2024-01-11T11:47:40.029Z,12.52
2024-01-11T11:50:10.471Z,12.30
2024-01-11T11:52:39.871Z,11.32
2024-01-11T11:55:09.401Z,12.95
2024-01-11T11:57:38.207Z,13.88
2024-01-11T12:00:07.329Z,11.73
2024-01-11T12:02:37.493Z,12.35
2024-01-11T12:05:07.754Z,11.07
2024-01-11T12:07:36.518Z,11.25
2024-01-11T12:10:04.991Z,14.05
2024-01-11T12:12:33.442Z,12.45
2024-01-11T12:15:01.772Z,13.27
2024-01-11T12:17:30.259Z,13.43
2024-01-11T12:19:58.702Z,13.70
2024-01-11T12:22:28.412Z,13.05
2024-01-11T12:24:57.036Z,12.52
2024-01-11T12:27:25.377Z,12.60
2024-01-11T12:29:58.856Z,11.80
2024-01-11T12:32:28.802Z,11.27
2024-01-11T12:34:57.481Z,12.65
2024-01-11T12:37:25.986Z,12.82
2024-01-11T12:40:00.898Z,12.38
2024-01-11T12:42:29.752Z,12.43
2024-01-11T12:44:59.608Z,13.57
2024-01-11T12:47:28.602Z,12.82
2024-01-11T12:49:57.394Z,13.30
2024-01-11T12:52:28.526Z,14.63
2024-01-11T12:54:57.817Z,13.82
2024-01-11T12:57:28.060Z,13.10
2024-01-11T12:59:56.929Z,11.13
2024-01-11T13:02:25.494Z,14.25
2024-01-11T13:04:54.078Z,11.77
2024-01-11T13:07:24.346Z,13.70
2024-01-11T13:09:52.856Z,12.88
2024-01-11T13:12:22.170Z,13.30
2024-01-11T13:14:54.156Z,15.85
2024-01-11T13:17:22.614Z,13.63
2024-01-11T13:19:51.414Z,14.25
2024-01-11T13:22:19.766Z,14.77
2024-01-11T13:24:48.130Z,13.48
2024-01-11T13:27:16.532Z,14.85
2024-01-11T13:29:44.913Z,14.10
2024-01-11T13:32:14.759Z,13.32
2024-01-11T13:34:43.835Z,15.75
2024-01-11T13:37:12.315Z,13.75
2024-01-11T13:39:40.722Z,13.25
2024-01-11T13:42:10.788Z,13.57
2024-01-11T13:44:39.452Z,15.60
2024-01-11T13:47:08.014Z,14.65
2024-01-11T13:49:37.877Z,14.50
2024-01-11T13:52:07.396Z,12.88
2024-01-11T13:54:35.791Z,13.48
2024-01-11T13:57:04.360Z,12.80
2024-01-11T13:59:33.958Z,14.13
2024-01-11T14:02:03.294Z,13.38
2024-01-11T14:04:31.741Z,13.20
2024-01-11T14:07:01.708Z,13.95
2024-01-11T14:09:30.145Z,14.07
2024-01-11T14:11:58.551Z,13.18
2024-01-11T14:14:27.080Z,15.77
2024-01-11T14:16:55.887Z,14.48
2024-01-11T14:19:24.470Z,14.35
2024-01-11T14:21:52.978Z,14.52
2024-01-11T14:24:26.789Z,14.88
2024-01-11T14:27:01.382Z,13.88
2024-01-11T14:29:30.351Z,12.68
2024-01-11T14:31:58.795Z,12.88
2024-01-11T14:34:28.797Z,13.98
2024-01-11T14:36:57.662Z,16.00
2024-01-11T14:39:27.838Z,13.48
2024-01-11T14:41:56.412Z,14.60
2024-01-11T14:44:24.820Z,15.57
2024-01-11T14:46:53.244Z,14.73
2024-01-11T14:49:22.229Z,15.35
2024-01-11T14:51:50.736Z,14.43
2024-01-11T14:54:20.884Z,14.57
2024-01-11T14:56:50.680Z,13.88
2024-01-11T14:59:19.231Z,13.75
2024-01-11T15:01:49.908Z,13.40
2024-01-11T15:04:18.683Z,13.02
2024-01-11T15:06:47.162Z,13.55
2024-01-11T15:09:16.314Z,14.82
2024-01-11T15:11:44.908Z,14.25
2024-01-11T15:14:14.929Z,13.35
2024-01-11T15:16:45.591Z,15.10
2024-01-11T15:19:14.156Z,15.75
2024-01-11T15:21:47.597Z,15.82
2024-01-11T15:24:20.157Z,14.85
2024-01-11T15:26:49.897Z,15.23
2024-01-11T15:29:20.326Z,13.43
2024-01-11T15:31:50.567Z,15.02
2024-01-11T15:34:19.825Z,14.20
2024-01-11T15:36:48.719Z,12.75
2024-01-11T15:39:25.593Z,14.48
2024-01-11T15:41:58.291Z,13.52
2024-01-11T15:44:29.942Z,15.73
2024-01-11T15:46:58.927Z,15.98
2024-01-11T15:49:27.961Z,13.93
2024-01-11T15:51:56.816Z,13.85
2024-01-11T15:54:25.184Z,13.82
2024-01-11T15:56:53.785Z,14.68
2024-01-11T15:59:23.800Z,14.55
2024-01-11T16:02:03.042Z,15.30
2024-01-11T16:04:35.047Z,16.52
2024-01-11T16:07:04.062Z,11.85
2024-01-11T16:09:32.674Z,15.40
2024-01-11T16:12:04.764Z,12.93
2024-01-11T16:14:34.891Z,14.93
2024-01-11T16:17:04.857Z,13.73
2024-01-11T16:19:35.053Z,16.65
2024-01-11T16:22:04.356Z,14.45
2024-01-11T16:24:32.879Z,14.43
2024-01-11T16:27:01.294Z,15.90
2024-01-11T16:29:29.762Z,16.42
2024-01-11T16:31:59.604Z,14.32
2024-01-11T16:34:30.105Z,16.55
2024-01-11T16:36:59.023Z,14.30
2024-01-11T16:39:27.420Z,15.27
2024-01-11T16:41:55.912Z,15.20
2024-01-11T16:44:25.448Z,14.95
2024-01-11T16:46:54.811Z,16.33
2024-01-11T16:49:24.481Z,16.17
2024-01-11T16:51:54.313Z,14.65
2024-01-11T16:54:22.813Z,14.25
2024-01-11T16:56:52.603Z,15.63
2024-01-11T16:59:21.239Z,15.13
2024-01-11T17:01:49.873Z,14.02
2024-01-11T17:04:18.372Z,15.38
2024-01-11T17:06:46.798Z,15.20
2024-01-11T17:09:16.905Z,14.02
2024-01-11T17:11:45.353Z,14.27
2024-01-11T17:14:13.784Z,14.98
2024-01-11T17:16:42.216Z,14.95
2024-01-11T17:19:10.584Z,14.73
2024-01-11T17:21:39.023Z,14.98
2024-01-11T17:24:07.900Z,14.20
2024-01-11T17:26:37.788Z,15.20
2024-01-11T17:29:06.395Z,13.05
2024-01-11T17:31:34.802Z,14.45
2024-01-11T17:34:03.306Z,15.50
2024-01-11T17:36:31.858Z,14.82
2024-01-11T17:39:01.532Z,15.38
2024-01-11T17:41:30.731Z,16.88
2024-01-11T17:44:00.662Z,17.15
2024-01-11T17:46:29.738Z,14.88
2024-01-11T17:48:58.299Z,15.32
2024-01-11T17:51:27.163Z,16.60
2024-01-11T17:53:55.561Z,17.88
2024-01-11T17:56:24.481Z,15.88
2024-01-11T17:58:53.182Z,17.13
2024-01-11T18:01:23.723Z,17.30
2024-01-11T18:03:52.184Z,17.05
2024-01-11T18:06:20.878Z,17.67
2024-01-11T18:08:49.830Z,14.57
2024-01-11T18:11:19.526Z,15.65
2024-01-11T18:13:48.004Z,17.15
2024-01-11T18:16:16.389Z,16.15
2024-01-11T18:18:47.894Z,15.60
2024-01-11T18:21:17.192Z,16.67
2024-01-11T18:23:45.939Z,16.25
2024-01-11T18:26:14.558Z,16.27
2024-01-11T18:28:43.157Z,15.45
2024-01-11T18:31:15.644Z,16.13
2024-01-11T18:33:46.446Z,15.48
2024-01-11T18:36:18.925Z,16.33
2024-01-11T18:38:47.502Z,15.15
2024-01-11T18:41:16.046Z,19.02
2024-01-11T18:43:51.230Z,17.13
2024-01-11T18:46:21.267Z,15.68
2024-01-11T18:48:56.295Z,17.17
2024-01-11T18:51:26.076Z,14.55
2024-01-11T18:53:54.738Z,17.25
2024-01-11T18:56:23.458Z,17.98
2024-01-11T18:58:51.864Z,15.80
2024-01-11T19:01:20.302Z,15.63
2024-01-11T19:03:48.733Z,16.88
2024-01-11T19:06:17.304Z,16.77
2024-01-11T19:08:47.114Z,16.60
2024-01-11T19:11:17.644Z,16.55
2024-01-11T19:13:46.671Z,15.63
2024-01-11T19:16:15.077Z,18.73
2024-01-11T19:18:43.543Z,17.25
2024-01-11T19:21:12.006Z,16.38
2024-01-11T19:23:40.737Z,16.58
2024-01-11T19:26:10.596Z,15.25
2024-01-11T19:28:38.958Z,16.38
2024-01-11T19:31:07.692Z,15.23
2024-01-11T19:33:36.261Z,14.85
2024-01-11T19:36:05.450Z,15.27
2024-01-11T19:38:35.775Z,16.08
2024-01-11T19:41:04.525Z,15.40
2024-01-11T19:43:36.452Z,14.73
2024-01-11T19:46:04.797Z,15.75
2024-01-11T19:48:33.372Z,16.48
2024-01-11T19:51:04.231Z,15.38
2024-01-11T19:53:32.970Z,15.93
2024-01-11T19:56:01.382Z,14.95
2024-01-11T19:58:29.720Z,14.95
2024-01-11T20:01:00.185Z,14.57
2024-01-11T20:03:28.586Z,14.00
2024-01-11T20:05:57.119Z,15.35
2024-01-11T20:08:25.855Z,14.15
2024-01-11T20:10:54.660Z,13.80
2024-01-11T20:13:23.125Z,13.88
2024-01-11T20:15:51.686Z,12.63
2024-01-11T20:18:23.484Z,13.80
2024-01-11T20:20:53.711Z,13.60
2024-01-11T20:23:22.340Z,12.90
2024-01-11T20:25:51.261Z,12.80
2024-01-11T20:28:19.637Z,11.55
2024-01-11T20:30:48.558Z,13.02
2024-01-11T20:33:17.295Z,11.95
2024-01-11T20:35:47.315Z,12.15
2024-01-11T20:38:15.819Z,12.23
2024-01-11T20:40:44.268Z,13.25
2024-01-11T20:43:14.197Z,13.52
2024-01-11T20:45:42.696Z,12.90
2024-01-11T20:48:11.355Z,11.30
2024-01-11T20:50:39.911Z,11.30
2024-01-11T20:53:09.820Z,9.77
2024-01-11T20:55:38.261Z,12.43
2024-01-11T20:58:06.749Z,10.73
2024-01-11T21:00:35.238Z,12.75
2024-01-11T21:03:03.764Z,11.20
2024-01-11T21:05:32.791Z,12.45
2024-01-11T21:08:03.161Z,13.55
2024-01-11T21:10:36.819Z,13.02
2024-01-11T21:13:05.241Z,11.45
2024-01-11T21:15:33.660Z,12.63
2024-01-11T21:18:02.326Z,11.75
2024-01-11T21:20:31.125Z,12.77
2024-01-11T21:22:59.742Z,12.02
2024-01-11T21:25:28.107Z,11.05
2024-01-11T21:27:57.919Z,11.98
2024-01-11T21:30:26.360Z,11.63
2024-01-11T21:32:54.905Z,11.63
2024-01-11T21:35:23.392Z,12.18
2024-01-11T21:37:51.805Z,11.07
2024-01-11T21:40:20.525Z,11.52
2024-01-11T21:42:48.984Z,12.07
2024-01-11T21:45:18.782Z,12.07
2024-01-11T21:47:49.255Z,12.32
2024-01-11T21:50:18.852Z,16.88
2024-01-11T21:52:48.176Z,15.68
2024-01-11T21:55:16.625Z,14.15
2024-01-11T21:57:45.036Z,14.45
2024-01-11T22:00:14.393Z,13.20
2024-01-11T22:02:44.391Z,13.93
2024-01-11T22:05:12.880Z,12.05
2024-01-11T22:07:41.240Z,11.18
2024-01-11T22:10:10.437Z,10.57
2024-01-11T22:12:38.947Z,12.07
2024-01-11T22:15:09.165Z,11.80
2024-01-11T22:17:38.014Z,11.32
2024-01-11T22:20:08.737Z,10.93
2024-01-11T22:22:37.335Z,11.63
2024-01-11T22:25:05.880Z,11.80
2024-01-11T22:27:34.657Z,10.98
2024-01-11T22:30:03.983Z,11.18
2024-01-11T22:32:32.595Z,11.13
2024-01-11T22:35:01.050Z,10.00
2024-01-11T22:37:30.870Z,11.10
2024-01-11T22:39:59.210Z,10.95
2024-01-11T22:42:27.588Z,11.80
2024-01-11T22:44:56.161Z,10.73
2024-01-11T22:47:25.670Z,11.10
2024-01-11T22:49:54.160Z,11.20
2024-01-11T22:52:22.550Z,10.57
2024-01-11T22:54:52.363Z,10.45
2024-01-11T22:57:20.739Z,10.73
2024-01-11T22:59:49.832Z,12.20
2024-01-11T23:02:18.871Z,11.75
2024-01-11T23:04:47.365Z,9.13
2024-01-11T23:07:15.715Z,10.18
2024-01-11T23:09:44.130Z,10.05
2024-01-11T23:12:13.906Z,11.15
2024-01-11T23:14:42.292Z,9.07
2024-01-11T23:17:10.678Z,9.35
2024-01-11T23:19:39.090Z,10.60
2024-01-11T23:22:07.456Z,11.88
2024-01-11T23:24:35.947Z,9.60
2024-01-11T23:27:06.991Z,10.82
2024-01-11T23:29:37.329Z,9.55
2024-01-11T23:32:06.064Z,8.90
2024-01-11T23:34:34.577Z,8.77
2024-01-11T23:37:02.932Z,9.13
2024-01-11T23:39:31.289Z,9.38
2024-01-11T23:41:59.684Z,8.88
2024-01-11T23:44:28.073Z,8.70
2024-01-11T23:46:57.997Z,9.15
2024-01-11T23:49:26.536Z,10.05
2024-01-11T23:51:54.992Z,9.52
2024-01-11T23:54:23.377Z,9.32
2024-01-11T23:56:51.874Z,8.70
2024-01-11T23:59:20.478Z,9.85
